createdAt,value
2023-10-06T00:01:45.652Z,100.00
2023-10-06T00:04:16.404Z,100.00
2023-10-06T00:06:43.948Z,100.00
2023-10-06T00:09:13.832Z,99.37
2023-10-06T00:11:41.702Z,99.27
2023-10-06T00:14:09.036Z,98.41
2023-10-06T00:16:41.631Z,99.20
2023-10-06T00:19:37.176Z,100.00
2023-10-06T00:22:24.486Z,100.00
2023-10-06T00:25:00.269Z,100.00
2023-10-06T00:27:30.994Z,99.24
2023-10-06T00:29:58.243Z,98.49
2023-10-06T00:32:28.337Z,98.38
2023-10-06T00:34:56.620Z,98.87
2023-10-06T00:37:23.856Z,100.00
2023-10-06T00:39:51.600Z,100.00
2023-10-06T00:42:21.923Z,99.36
2023-10-06T00:44:48.517Z,98.92
2023-10-06T00:47:16.784Z,99.35
2023-10-06T00:49:44.694Z,99.07
2023-10-06T00:52:13.437Z,98.99
2023-10-06T00:54:48.195Z,98.16
2023-10-06T00:57:20.032Z,98.06
2023-10-06T00:59:46.865Z,99.66
2023-10-06T01:02:15.249Z,100.00
2023-10-06T01:04:54.062Z,100.00
2023-10-06T01:07:20.819Z,99.28
2023-10-06T01:09:57.322Z,99.86
2023-10-06T01:12:25.701Z,100.00
2023-10-06T01:14:53.919Z,100.00
2023-10-06T01:17:20.764Z,100.00
2023-10-06T01:19:50.712Z,100.00
2023-10-06T01:22:29.957Z,99.59
2023-10-06T01:24:57.105Z,99.29
2023-10-06T01:27:27.485Z,99.69
2023-10-06T01:30:16.262Z,99.60
2023-10-06T01:32:45.223Z,100.00
2023-10-06T01:35:16.521Z,100.00
2023-10-06T01:37:48.900Z,100.00
2023-10-06T01:40:30.439Z,100.00
2023-10-06T01:42:57.190Z,99.21
2023-10-06T01:45:23.799Z,98.76
2023-10-06T01:48:10.647Z,98.88
2023-10-06T01:50:37.342Z,99.15
2023-10-06T01:53:08.171Z,99.65
2023-10-06T01:55:40.804Z,100.00
2023-10-06T01:58:12.262Z,99.40
2023-10-06T02:00:39.200Z,99.14
2023-10-06T02:03:11.389Z,98.67
2023-10-06T02:05:41.461Z,99.08
2023-10-06T02:08:10.891Z,98.86
2023-10-06T02:10:38.007Z,99.38
2023-10-06T02:13:06.888Z,100.00
2023-10-06T02:15:33.467Z,100.00
2023-10-06T02:18:00.109Z,100.00
2023-10-06T02:20:26.736Z,99.15
2023-10-06T02:22:53.751Z,98.82
2023-10-06T02:25:24.221Z,98.92
2023-10-06T02:27:51.580Z,98.73
2023-10-06T02:30:20.495Z,99.34
2023-10-06T02:32:47.235Z,99.48
2023-10-06T02:35:14.453Z,99.77
2023-10-06T02:37:41.176Z,99.77
2023-10-06T02:40:17.780Z,99.12
2023-10-06T02:42:57.843Z,98.67
2023-10-06T02:45:31.444Z,99.22
2023-10-06T02:48:00.004Z,98.57
2023-10-06T02:50:26.669Z,98.10
2023-10-06T02:52:55.204Z,98.05
2023-10-06T02:55:22.738Z,98.58
2023-10-06T02:57:59.171Z,99.22
2023-10-06T03:00:25.718Z,98.96
2023-10-06T03:02:57.108Z,97.85
2023-10-06T03:05:33.638Z,97.82
2023-10-06T03:08:09.651Z,98.10
2023-10-06T03:10:44.029Z,97.61
2023-10-06T03:13:14.655Z,97.26
2023-10-06T03:15:50.971Z,97.68
2023-10-06T03:18:18.169Z,98.80
2023-10-06T03:20:48.924Z,97.83
2023-10-06T03:23:31.941Z,98.33
2023-10-06T03:25:59.004Z,97.90
2023-10-06T03:28:33.202Z,98.02
2023-10-06T03:31:22.749Z,97.32
2023-10-06T03:33:53.450Z,96.75
2023-10-06T03:36:29.553Z,96.82
2023-10-06T03:39:07.062Z,96.08
2023-10-06T03:41:38.130Z,96.49
2023-10-06T03:44:05.549Z,98.03
2023-10-06T03:46:40.644Z,97.95
2023-10-06T03:49:09.267Z,97.37
2023-10-06T03:51:39.924Z,97.81
2023-10-06T03:54:07.408Z,97.55
2023-10-06T03:56:33.982Z,97.33
2023-10-06T03:59:14.154Z,97.68
2023-10-06T04:01:43.632Z,96.80
2023-10-06T04:04:10.377Z,96.66
2023-10-06T04:06:37.529Z,97.32
2023-10-06T04:09:04.344Z,97.36
2023-10-06T04:11:35.448Z,97.01
2023-10-06T04:14:02.382Z,97.48
2023-10-06T04:16:29.065Z,96.49
2023-10-06T04:18:55.642Z,96.91
2023-10-06T04:21:25.331Z,96.59
2023-10-06T04:23:52.015Z,96.37
2023-10-06T04:26:19.477Z,95.81
2023-10-06T04:28:48.182Z,96.46
2023-10-06T04:31:16.670Z,96.82
2023-10-06T04:33:43.831Z,96.81
2023-10-06T04:36:11.175Z,96.28
2023-10-06T04:38:41.737Z,96.16
2023-10-06T04:41:10.265Z,97.30
2023-10-06T04:43:38.042Z,98.00
2023-10-06T04:46:07.652Z,97.88
2023-10-06T04:48:37.165Z,97.72
2023-10-06T04:51:04.491Z,97.28
2023-10-06T04:53:36.150Z,97.11
2023-10-06T04:56:06.708Z,96.54
2023-10-06T04:58:40.159Z,96.96
2023-10-06T05:01:09.066Z,96.53
2023-10-06T05:03:44.501Z,96.17
2023-10-06T05:06:15.002Z,96.14
2023-10-06T05:08:42.226Z,96.24
2023-10-06T05:11:11.812Z,95.81
2023-10-06T05:13:38.973Z,96.02
2023-10-06T05:16:05.624Z,95.34
2023-10-06T05:18:34.207Z,95.12
2023-10-06T05:21:02.285Z,95.07
2023-10-06T05:23:28.875Z,95.42
2023-10-06T05:26:03.471Z,95.86
2023-10-06T05:28:30.915Z,95.65
2023-10-06T05:30:57.910Z,96.18
2023-10-06T05:33:26.308Z,96.88
2023-10-06T05:35:53.206Z,96.93
2023-10-06T05:38:20.458Z,98.20
2023-10-06T05:40:48.113Z,97.71
2023-10-06T05:43:18.326Z,97.23
2023-10-06T05:45:46.515Z,96.89
2023-10-06T05:48:13.938Z,96.92
2023-10-06T05:50:41.993Z,97.30
2023-10-06T05:53:20.839Z,97.06
2023-10-06T05:55:50.983Z,97.24
2023-10-06T05:58:20.565Z,99.09
2023-10-06T06:00:58.521Z,100.00
2023-10-06T06:03:25.714Z,100.00
2023-10-06T06:05:58.864Z,100.00
2023-10-06T06:08:25.532Z,100.00
2023-10-06T06:10:52.153Z,100.00
2023-10-06T06:13:20.977Z,100.00
2023-10-06T06:15:49.609Z,100.00
2023-10-06T06:18:16.792Z,100.00
2023-10-06T06:20:43.530Z,100.00
2023-10-06T06:23:13.269Z,100.00
2023-10-06T06:25:40.871Z,100.00
2023-10-06T06:28:09.109Z,100.00
2023-10-06T06:30:38.264Z,100.00
2023-10-06T06:33:06.245Z,100.00
2023-10-06T06:35:34.060Z,100.00
2023-10-06T06:38:01.105Z,100.00
2023-10-06T06:40:29.901Z,100.00
2023-10-06T06:42:59.232Z,100.00
2023-10-06T06:45:25.816Z,100.00
2023-10-06T06:47:52.803Z,100.00
2023-10-06T06:50:20.171Z,100.00
2023-10-06T06:52:47.727Z,100.00
2023-10-06T06:55:14.940Z,100.00
2023-10-06T06:57:44.265Z,100.00
2023-10-06T07:00:16.950Z,100.00
2023-10-06T07:02:47.022Z,100.00
2023-10-06T07:05:14.347Z,100.00
2023-10-06T07:07:41.599Z,100.00
2023-10-06T07:10:11.442Z,100.00
2023-10-06T07:12:38.544Z,100.00
2023-10-06T07:15:05.344Z,100.00
2023-10-06T07:17:33.195Z,100.00
2023-10-06T07:20:02.083Z,100.00
2023-10-06T07:22:32.713Z,100.00
2023-10-06T07:24:59.291Z,100.00
2023-10-06T07:27:25.955Z,100.00
2023-10-06T07:29:53.043Z,100.00
2023-10-06T07:32:19.583Z,100.00
2023-10-06T07:34:46.173Z,100.00
2023-10-06T07:37:12.842Z,100.00
2023-10-06T07:39:39.368Z,100.00
2023-10-06T07:42:07.837Z,100.00
2023-10-06T07:44:34.502Z,100.00
2023-10-06T07:47:02.178Z,100.00
2023-10-06T07:49:31.311Z,100.00
2023-10-06T07:51:57.877Z,100.00
2023-10-06T07:54:24.586Z,100.00
2023-10-06T07:56:52.521Z,100.00
2023-10-06T07:59:19.310Z,100.00
2023-10-06T08:01:45.845Z,100.00
2023-10-06T08:04:13.440Z,100.00
2023-10-06T08:06:39.990Z,100.00
2023-10-06T08:09:06.869Z,100.00
2023-10-06T08:11:33.816Z,100.00
2023-10-06T08:14:01.034Z,100.00
2023-10-06T08:16:31.336Z,100.00
2023-10-06T08:18:57.865Z,100.00
2023-10-06T08:21:24.402Z,100.00
2023-10-06T08:23:51.572Z,100.00
2023-10-06T08:26:18.235Z,100.00
2023-10-06T08:28:46.507Z,100.00
2023-10-06T08:31:16.852Z,100.00
2023-10-06T08:33:44.847Z,100.00
2023-10-06T08:36:11.906Z,100.00
2023-10-06T08:38:38.840Z,100.00
2023-10-06T08:41:05.800Z,100.00
2023-10-06T08:43:35.734Z,100.00
2023-10-06T08:46:02.981Z,100.00
2023-10-06T08:48:33.777Z,100.00
2023-10-06T08:51:04.621Z,100.00
2023-10-06T08:53:32.231Z,100.00
2023-10-06T08:55:59.118Z,100.00
2023-10-06T08:58:28.135Z,100.00
2023-10-06T09:00:56.969Z,100.00
2023-10-06T09:03:25.808Z,100.00
2023-10-06T09:05:54.668Z,100.00
2023-10-06T09:08:21.318Z,100.00
2023-10-06T09:10:51.950Z,100.00
2023-10-06T09:13:19.365Z,100.00
2023-10-06T09:16:00.941Z,100.00
2023-10-06T09:18:33.027Z,100.00
2023-10-06T09:21:13.375Z,100.00
2023-10-06T09:23:43.038Z,100.00
2023-10-06T09:26:12.824Z,100.00
2023-10-06T09:28:52.916Z,100.00
2023-10-06T09:31:39.402Z,100.00
2023-10-06T09:34:09.110Z,100.00
2023-10-06T09:36:44.292Z,100.00
2023-10-06T09:39:21.466Z,100.00
2023-10-06T09:41:49.627Z,100.00
2023-10-06T09:44:20.222Z,99.04
2023-10-06T09:46:47.810Z,97.00
2023-10-06T09:49:17.648Z,97.85
2023-10-06T09:51:44.722Z,96.93
2023-10-06T09:54:11.715Z,95.97
2023-10-06T09:56:41.711Z,95.41
2023-10-06T09:59:15.183Z,95.38
2023-10-06T10:01:47.080Z,93.61
2023-10-06T10:04:15.160Z,91.17
2023-10-06T10:06:45.801Z,91.61
2023-10-06T10:09:17.209Z,90.13
2023-10-06T10:11:57.157Z,88.72
2023-10-06T10:14:38.756Z,87.46
2023-10-06T10:17:15.264Z,86.90
2023-10-06T10:19:44.815Z,85.93
2023-10-06T10:22:14.796Z,85.09
2023-10-06T10:27:28.333Z,81.61
2023-10-06T10:29:54.928Z,79.96
2023-10-06T10:32:24.578Z,79.64
2023-10-06T10:35:15.865Z,78.54
2023-10-06T10:37:52.630Z,75.44
2023-10-06T10:40:24.403Z,74.43
2023-10-06T10:42:54.897Z,74.15
2023-10-06T10:45:45.652Z,72.71
2023-10-06T10:48:16.209Z,72.85
2023-10-06T10:51:02.091Z,68.67
2023-10-06T10:53:30.714Z,66.21
2023-10-06T10:55:58.016Z,66.02
2023-10-06T10:58:43.347Z,65.11
2023-10-06T11:01:23.906Z,64.29
2023-10-06T11:04:10.077Z,64.57
2023-10-06T11:06:37.161Z,63.08
2023-10-06T11:09:22.576Z,62.87
2023-10-06T11:11:49.271Z,60.37
2023-10-06T11:14:16.118Z,60.97
2023-10-06T11:16:48.637Z,61.52
2023-10-06T11:19:16.401Z,61.19
2023-10-06T11:21:45.332Z,60.62
2023-10-06T11:24:13.939Z,58.89
2023-10-06T11:26:44.557Z,59.52
2023-10-06T11:32:42.588Z,60.50
2023-10-06T11:35:11.112Z,60.43
2023-10-06T11:37:37.866Z,60.36
2023-10-06T11:40:05.249Z,60.45
2023-10-06T11:42:33.687Z,59.32
2023-10-06T11:45:01.193Z,58.07
2023-10-06T11:47:27.743Z,57.79
2023-10-06T11:49:54.604Z,57.61
2023-10-06T11:52:23.621Z,56.62
2023-10-06T11:54:50.612Z,56.14
2023-10-06T11:57:17.773Z,54.95
2023-10-06T11:59:50.895Z,52.72
2023-10-06T12:02:18.072Z,52.20
2023-10-06T12:04:45.365Z,53.38
2023-10-06T12:07:21.853Z,51.31
2023-10-06T12:09:49.875Z,51.84
2023-10-06T12:12:19.588Z,53.07
2023-10-06T12:14:46.422Z,54.40
2023-10-06T12:17:14.890Z,54.44
2023-10-06T12:19:43.504Z,53.52
2023-10-06T12:22:14.386Z,55.04
2023-10-06T12:24:41.634Z,55.56
2023-10-06T12:27:10.664Z,56.76
2023-10-06T12:29:37.317Z,57.15
2023-10-06T12:32:05.483Z,57.64
2023-10-06T12:34:32.864Z,56.95
2023-10-06T12:37:03.394Z,54.50
2023-10-06T12:39:36.106Z,54.88
2023-10-06T12:42:07.942Z,54.77
2023-10-06T12:44:40.755Z,54.03
2023-10-06T12:47:12.158Z,54.31
2023-10-06T12:49:43.452Z,53.11
2023-10-06T12:52:17.391Z,53.47
2023-10-06T12:54:45.626Z,53.74
2023-10-06T12:57:12.346Z,52.88
2023-10-06T12:59:39.054Z,52.08
2023-10-06T13:02:06.059Z,52.88
2023-10-06T13:04:36.294Z,53.09
2023-10-06T13:07:06.376Z,51.61
2023-10-06T13:09:37.013Z,52.17
2023-10-06T13:12:05.151Z,50.94
2023-10-06T13:14:32.605Z,50.53
2023-10-06T13:16:59.289Z,49.77
2023-10-06T13:19:25.827Z,48.00
2023-10-06T13:21:53.536Z,47.07
2023-10-06T13:24:21.098Z,46.49
2023-10-06T13:26:47.681Z,48.56
2023-10-06T13:29:14.267Z,48.60
2023-10-06T13:31:42.153Z,46.85
2023-10-06T13:34:09.435Z,47.60
2023-10-06T13:36:36.185Z,46.42
2023-10-06T13:39:03.910Z,46.10
2023-10-06T13:41:30.772Z,46.84
2023-10-06T13:43:57.307Z,45.96
2023-10-06T13:46:24.835Z,46.90
2023-10-06T13:48:51.534Z,46.74
2023-10-06T13:51:18.187Z,47.90
2023-10-06T13:53:45.311Z,47.85
2023-10-06T13:56:12.146Z,46.84
2023-10-06T13:58:38.807Z,46.90
2023-10-06T14:01:05.766Z,45.58
2023-10-06T14:03:32.612Z,45.08
2023-10-06T14:06:01.675Z,40.45
2023-10-06T14:08:29.705Z,37.32
2023-10-06T14:10:57.213Z,37.97
2023-10-06T14:13:28.686Z,38.34
2023-10-06T14:16:01.473Z,38.84
2023-10-06T14:18:31.407Z,39.27
2023-10-06T14:21:07.048Z,40.36
2023-10-06T14:23:36.352Z,40.62
2023-10-06T14:26:08.006Z,40.94
2023-10-06T14:28:34.595Z,40.53
2023-10-06T14:31:19.618Z,40.38
2023-10-06T14:33:48.700Z,40.68
2023-10-06T14:36:24.071Z,40.72
2023-10-06T14:39:09.036Z,40.84
2023-10-06T14:41:54.293Z,40.87
2023-10-06T14:44:39.627Z,40.90
2023-10-06T14:47:09.154Z,40.46
2023-10-06T14:49:40.504Z,40.92
2023-10-06T14:52:09.320Z,40.66
2023-10-06T14:54:36.183Z,40.61
2023-10-06T14:57:04.207Z,41.27
2023-10-06T14:59:33.959Z,41.04
2023-10-06T15:02:11.456Z,41.48
2023-10-06T15:04:42.078Z,41.39
2023-10-06T15:07:10.274Z,41.71
2023-10-06T15:09:39.273Z,43.14
2023-10-06T15:12:06.795Z,42.29
2023-10-06T15:17:23.885Z,43.76
2023-10-06T15:19:51.560Z,44.10
2023-10-06T15:22:18.241Z,43.69
2023-10-06T15:24:44.830Z,44.64
2023-10-06T15:27:11.845Z,44.31
2023-10-06T15:29:39.541Z,44.22
2023-10-06T15:32:07.006Z,45.14
2023-10-06T15:34:36.135Z,45.77
2023-10-06T15:37:03.209Z,46.57
2023-10-06T15:39:32.230Z,47.75
2023-10-06T15:41:59.699Z,48.19
2023-10-06T15:44:28.225Z,48.92
2023-10-06T15:46:57.837Z,49.14
2023-10-06T15:49:24.730Z,49.93
2023-10-06T15:51:51.477Z,53.68
2023-10-06T15:54:18.157Z,57.33
2023-10-06T15:56:45.168Z,58.14
2023-10-06T15:59:16.419Z,59.16
2023-10-06T16:01:44.538Z,59.80
2023-10-06T16:04:14.944Z,60.92
2023-10-06T16:06:42.880Z,61.69
2023-10-06T16:09:11.063Z,62.57
2023-10-06T16:11:40.834Z,62.95
2023-10-06T16:14:07.539Z,64.28
2023-10-06T16:16:35.896Z,64.43
2023-10-06T16:19:04.391Z,65.26
2023-10-06T16:21:33.004Z,65.56
2023-10-06T16:24:00.100Z,66.16
2023-10-06T16:26:27.270Z,67.87
2023-10-06T16:28:53.842Z,67.62
2023-10-06T16:31:21.064Z,68.17
2023-10-06T16:33:47.745Z,69.43
2023-10-06T16:36:14.341Z,69.84
2023-10-06T16:38:42.082Z,70.63
2023-10-06T16:41:12.617Z,70.84
2023-10-06T16:43:39.411Z,70.71
2023-10-06T16:46:07.305Z,71.37
2023-10-06T16:48:36.185Z,72.09
2023-10-06T16:51:04.813Z,72.45
2023-10-06T16:53:31.469Z,73.29
2023-10-06T16:55:59.041Z,73.55
2023-10-06T16:58:26.135Z,74.26
2023-10-06T17:00:54.389Z,74.75
2023-10-06T17:03:22.063Z,75.26
2023-10-06T17:05:52.067Z,75.38
2023-10-06T17:08:19.979Z,75.52
2023-10-06T17:10:46.721Z,75.80
2023-10-06T17:13:18.781Z,76.19
2023-10-06T17:15:49.558Z,76.31
2023-10-06T17:18:19.104Z,76.88
2023-10-06T17:20:45.839Z,76.66
2023-10-06T17:23:12.863Z,76.95
2023-10-06T17:25:40.521Z,77.79
2023-10-06T17:28:08.645Z,77.99
2023-10-06T17:30:37.272Z,78.21
2023-10-06T17:33:08.325Z,78.61
2023-10-06T17:35:35.684Z,78.85
2023-10-06T17:38:02.424Z,79.29
2023-10-06T17:40:30.200Z,79.39
2023-10-06T17:42:56.726Z,80.06
2023-10-06T17:45:26.574Z,81.12
2023-10-06T17:47:56.359Z,81.38
2023-10-06T17:50:24.016Z,81.79
2023-10-06T17:52:50.750Z,81.62
2023-10-06T17:55:17.345Z,81.64
2023-10-06T17:57:43.994Z,82.13
2023-10-06T18:00:12.208Z,82.61
2023-10-06T18:02:41.893Z,82.95
2023-10-06T18:05:09.761Z,83.20
2023-10-06T18:07:36.675Z,83.65
2023-10-06T18:10:09.153Z,83.98
2023-10-06T18:12:36.720Z,85.13
2023-10-06T18:15:06.996Z,85.68
2023-10-06T18:17:33.932Z,85.29
2023-10-06T18:20:00.527Z,85.39
2023-10-06T18:22:28.369Z,85.39
2023-10-06T18:24:54.985Z,85.55
2023-10-06T18:27:22.569Z,86.12
2023-10-06T18:29:49.278Z,87.13
2023-10-06T18:32:15.986Z,86.55
2023-10-06T18:34:43.151Z,86.54
2023-10-06T18:37:09.784Z,86.49
2023-10-06T18:39:37.152Z,86.36
2023-10-06T18:42:03.740Z,86.36
2023-10-06T18:44:30.534Z,86.72
2023-10-06T18:46:57.133Z,87.11
2023-10-06T18:49:23.714Z,87.11
2023-10-06T18:51:50.277Z,87.18
2023-10-06T18:54:16.946Z,87.55
2023-10-06T18:56:43.548Z,87.82
2023-10-06T18:59:12.420Z,88.98
2023-10-06T19:01:39.328Z,88.61
2023-10-06T19:04:10.746Z,88.86
2023-10-06T19:06:41.519Z,88.73
2023-10-06T19:09:11.184Z,88.80
2023-10-06T19:11:38.273Z,89.17
2023-10-06T19:14:06.059Z,89.08
2023-10-06T19:16:33.163Z,89.05
2023-10-06T19:19:01.014Z,89.68
2023-10-06T19:21:27.702Z,89.56
2023-10-06T19:23:54.189Z,89.84
2023-10-06T19:26:21.025Z,90.54
2023-10-06T19:28:48.211Z,90.14
2023-10-06T19:31:15.074Z,90.97
2023-10-06T19:33:59.937Z,91.70
2023-10-06T19:36:27.020Z,91.20
2023-10-06T19:38:55.666Z,91.54
2023-10-06T19:41:22.815Z,92.12
2023-10-06T19:43:49.672Z,92.29
2023-10-06T19:46:16.404Z,92.36
2023-10-06T19:48:54.895Z,93.55
2023-10-06T19:51:22.270Z,93.72
2023-10-06T19:53:48.956Z,92.99
2023-10-06T19:56:15.920Z,94.74
2023-10-06T19:58:42.663Z,95.62
2023-10-06T20:01:10.700Z,95.04
2023-10-06T20:03:38.987Z,94.17
2023-10-06T20:06:06.063Z,94.53
2023-10-06T20:08:33.627Z,95.48
2023-10-06T20:11:01.687Z,94.99
2023-10-06T20:13:30.259Z,94.91
2023-10-06T20:15:58.059Z,94.98
2023-10-06T20:18:25.064Z,94.24
2023-10-06T20:20:53.782Z,94.15
2023-10-06T20:23:20.653Z,94.32
2023-10-06T20:25:47.392Z,95.45
2023-10-06T20:28:15.620Z,94.94
2023-10-06T20:30:42.466Z,96.21
2023-10-06T20:33:09.144Z,95.96
2023-10-06T20:35:37.090Z,96.16
2023-10-06T20:38:04.636Z,97.62
2023-10-06T20:40:33.853Z,97.58
2023-10-06T20:43:03.520Z,98.87
2023-10-06T20:45:32.707Z,98.61
2023-10-06T20:48:00.398Z,97.84
2023-10-06T20:50:28.577Z,99.99
2023-10-06T20:52:56.078Z,98.65
2023-10-06T20:55:23.201Z,99.08
2023-10-06T20:57:51.211Z,99.87
2023-10-06T21:00:19.593Z,98.74
2023-10-06T21:02:48.125Z,99.24
2023-10-06T21:05:16.772Z,100.00
2023-10-06T21:07:44.080Z,100.00
2023-10-06T21:10:11.446Z,100.00
2023-10-06T21:12:38.907Z,100.00
2023-10-06T21:15:05.944Z,99.91
2023-10-06T21:17:32.738Z,99.65
2023-10-06T21:19:59.992Z,99.36
2023-10-06T21:22:28.242Z,99.80
2023-10-06T21:24:57.775Z,99.17
2023-10-06T21:27:24.319Z,98.76
2023-10-06T21:29:50.882Z,98.23
2023-10-06T21:32:17.534Z,99.08
2023-10-06T21:34:44.876Z,98.71
2023-10-06T21:37:11.528Z,100.00
2023-10-06T21:39:38.097Z,100.00
2023-10-06T21:42:04.708Z,99.50
2023-10-06T21:44:31.199Z,98.82
2023-10-06T21:46:58.248Z,100.00
2023-10-06T21:49:27.966Z,100.00
2023-10-06T21:51:54.560Z,100.00
2023-10-06T21:54:21.085Z,100.00
2023-10-06T21:56:47.623Z,100.00
2023-10-06T21:59:14.246Z,100.00
2023-10-06T22:01:40.855Z,100.00
2023-10-06T22:04:07.620Z,100.00
2023-10-06T22:06:34.321Z,100.00
2023-10-06T22:09:00.872Z,100.00
2023-10-06T22:11:27.452Z,100.00
2023-10-06T22:13:54.841Z,100.00
2023-10-06T22:16:21.558Z,100.00
2023-10-06T22:18:48.269Z,100.00
2023-10-06T22:21:15.553Z,100.00
2023-10-06T22:23:43.132Z,100.00
2023-10-06T22:26:09.871Z,100.00
2023-10-06T22:28:36.773Z,100.00
2023-10-06T22:31:05.439Z,100.00
2023-10-06T22:33:32.685Z,100.00
2023-10-06T22:35:59.514Z,100.00
2023-10-06T22:38:26.438Z,100.00
2023-10-06T22:40:53.291Z,100.00
2023-10-06T22:43:20.118Z,100.00
2023-10-06T22:45:46.757Z,100.00
2023-10-06T22:48:13.481Z,100.00
2023-10-06T22:50:41.005Z,100.00
2023-10-06T22:53:08.040Z,100.00
2023-10-06T22:55:36.943Z,100.00
2023-10-06T22:58:03.816Z,100.00
2023-10-06T23:00:30.537Z,100.00
2023-10-06T23:02:57.974Z,100.00
2023-10-06T23:05:25.605Z,100.00
2023-10-06T23:07:52.793Z,100.00
2023-10-06T23:10:19.830Z,100.00
2023-10-06T23:12:52.788Z,100.00
2023-10-06T23:15:20.291Z,100.00
2023-10-06T23:17:47.233Z,100.00
2023-10-06T23:20:23.137Z,100.00
2023-10-06T23:22:58.996Z,100.00
2023-10-06T23:25:33.029Z,100.00
2023-10-06T23:27:59.605Z,100.00
2023-10-06T23:30:26.137Z,100.00
2023-10-06T23:32:52.691Z,100.00
2023-10-06T23:35:19.245Z,100.00
2023-10-06T23:37:55.754Z,100.00
2023-10-06T23:40:26.593Z,100.00
2023-10-06T23:42:56.293Z,100.00
2023-10-06T23:45:32.795Z,100.00
2023-10-06T23:48:00.446Z,100.00
2023-10-06T23:50:30.338Z,100.00
2023-10-06T23:53:01.348Z,100.00
2023-10-06T23:55:28.486Z,100.00
2023-10-06T23:57:55.715Z,100.00
